sensor_id;sensor_type;location;lat;lon;timestamp;temperature;humidity
52675;DHT22;38569;52.722;6.440;2023-04-03T00:01:29;2.30;99.90
52675;DHT22;38569;52.722;6.440;2023-04-03T00:03:55;2.20;99.90
52675;DHT22;38569;52.722;6.440;2023-04-03T00:06:22;2.20;99.90
52675;DHT22;38569;52.722;6.440;2023-04-03T00:08:48;2.20;99.90
52675;DHT22;38569;52.722;6.440;2023-04-03T00:11:14;2.20;99.90
52675;DHT22;38569;52.722;6.440;2023-04-03T00:13:41;2.10;99.90
52675;DHT22;38569;52.722;6.440;2023-04-03T00:16:08;2.00;99.90
52675;DHT22;38569;52.722;6.440;2023-04-03T00:18:35;2.00;99.90
52675;DHT22;38569;52.722;6.440;2023-04-03T00:21:01;2.00;99.90
52675;DHT22;38569;52.722;6.440;2023-04-03T00:23:27;2.00;99.90
52675;DHT22;38569;52.722;6.440;2023-04-03T00:25:52;1.90;99.90
52675;DHT22;38569;52.722;6.440;2023-04-03T00:28:18;1.90;99.90
52675;DHT22;38569;52.722;6.440;2023-04-03T00:30:44;1.90;99.90
52675;DHT22;38569;52.722;6.440;2023-04-03T00:33:13;1.90;99.90
52675;DHT22;38569;52.722;6.440;2023-04-03T00:35:40;1.80;99.90
52675;DHT22;38569;52.722;6.440;2023-04-03T00:38:09;1.80;99.90
52675;DHT22;38569;52.722;6.440;2023-04-03T00:40:37;1.70;99.90
52675;DHT22;38569;52.722;6.440;2023-04-03T00:43:13;1.70;99.90
52675;DHT22;38569;52.722;6.440;2023-04-03T00:45:41;1.70;99.90
52675;DHT22;38569;52.722;6.440;2023-04-03T00:48:10;1.70;99.90
52675;DHT22;38569;52.722;6.440;2023-04-03T00:50:39;1.60;99.90
52675;DHT22;38569;52.722;6.440;2023-04-03T00:53:08;1.50;99.90
52675;DHT22;38569;52.722;6.440;2023-04-03T00:55:36;1.50;99.90
52675;DHT22;38569;52.722;6.440;2023-04-03T00:58:03;1.50;99.90
52675;DHT22;38569;52.722;6.440;2023-04-03T01:00:30;1.50;99.90
52675;DHT22;38569;52.722;6.440;2023-04-03T01:02:56;1.50;99.90
52675;DHT22;38569;52.722;6.440;2023-04-03T01:05:22;1.50;99.90
52675;DHT22;38569;52.722;6.440;2023-04-03T01:07:49;1.50;99.90
52675;DHT22;38569;52.722;6.440;2023-04-03T01:10:17;1.50;99.90
52675;DHT22;38569;52.722;6.440;2023-04-03T01:12:46;1.40;99.90
52675;DHT22;38569;52.722;6.440;2023-04-03T01:15:21;1.50;99.90
52675;DHT22;38569;52.722;6.440;2023-04-03T01:17:53;1.50;99.90
52675;DHT22;38569;52.722;6.440;2023-04-03T01:25:43;1.50;99.90
52675;DHT22;38569;52.722;6.440;2023-04-03T01:28:31;1.50;99.90
52675;DHT22;38569;52.722;6.440;2023-04-03T01:33:41;1.40;99.90
52675;DHT22;38569;52.722;6.440;2023-04-03T01:36:07;1.40;99.90
52675;DHT22;38569;52.722;6.440;2023-04-03T01:38:33;1.40;99.90
52675;DHT22;38569;52.722;6.440;2023-04-03T01:40:59;1.40;99.90
52675;DHT22;38569;52.722;6.440;2023-04-03T01:43:25;1.50;99.90
52675;DHT22;38569;52.722;6.440;2023-04-03T01:45:51;1.50;99.90
52675;DHT22;38569;52.722;6.440;2023-04-03T01:48:18;1.50;99.90
52675;DHT22;38569;52.722;6.440;2023-04-03T01:50:43;1.50;99.90
52675;DHT22;38569;52.722;6.440;2023-04-03T01:53:10;1.50;99.90
52675;DHT22;38569;52.722;6.440;2023-04-03T01:55:35;1.50;99.90
52675;DHT22;38569;52.722;6.440;2023-04-03T01:58:01;1.50;99.90
52675;DHT22;38569;52.722;6.440;2023-04-03T02:00:27;1.50;99.90
52675;DHT22;38569;52.722;6.440;2023-04-03T02:02:52;1.60;99.90
52675;DHT22;38569;52.722;6.440;2023-04-03T02:05:18;1.50;99.90
52675;DHT22;38569;52.722;6.440;2023-04-03T02:07:44;1.60;99.90
52675;DHT22;38569;52.722;6.440;2023-04-03T02:10:10;1.50;99.90
52675;DHT22;38569;52.722;6.440;2023-04-03T02:12:36;1.50;99.90
52675;DHT22;38569;52.722;6.440;2023-04-03T02:15:01;1.40;99.90
52675;DHT22;38569;52.722;6.440;2023-04-03T02:17:27;1.40;99.90
52675;DHT22;38569;52.722;6.440;2023-04-03T02:19:53;1.40;99.90
52675;DHT22;38569;52.722;6.440;2023-04-03T02:22:18;1.40;99.90
52675;DHT22;38569;52.722;6.440;2023-04-03T02:24:45;1.30;99.90
52675;DHT22;38569;52.722;6.440;2023-04-03T02:27:11;1.40;99.90
52675;DHT22;38569;52.722;6.440;2023-04-03T02:29:37;1.30;99.90
52675;DHT22;38569;52.722;6.440;2023-04-03T02:32:03;1.30;99.90
52675;DHT22;38569;52.722;6.440;2023-04-03T02:34:28;1.30;99.90
52675;DHT22;38569;52.722;6.440;2023-04-03T02:36:54;1.20;99.90
52675;DHT22;38569;52.722;6.440;2023-04-03T02:39:20;1.20;99.90
52675;DHT22;38569;52.722;6.440;2023-04-03T02:41:46;1.20;99.90
52675;DHT22;38569;52.722;6.440;2023-04-03T02:44:12;1.10;99.90
52675;DHT22;38569;52.722;6.440;2023-04-03T02:46:38;1.10;99.90
52675;DHT22;38569;52.722;6.440;2023-04-03T02:49:04;1.10;99.90
52675;DHT22;38569;52.722;6.440;2023-04-03T02:51:30;1.00;99.90
52675;DHT22;38569;52.722;6.440;2023-04-03T02:53:56;1.00;99.90
52675;DHT22;38569;52.722;6.440;2023-04-03T02:56:22;0.90;99.90
52675;DHT22;38569;52.722;6.440;2023-04-03T02:58:47;0.90;99.90
52675;DHT22;38569;52.722;6.440;2023-04-03T03:01:14;0.80;99.90
52675;DHT22;38569;52.722;6.440;2023-04-03T03:03:39;0.80;99.90
52675;DHT22;38569;52.722;6.440;2023-04-03T03:06:13;0.80;99.90
52675;DHT22;38569;52.722;6.440;2023-04-03T03:08:40;0.70;99.90
52675;DHT22;38569;52.722;6.440;2023-04-03T03:11:07;0.70;99.90
52675;DHT22;38569;52.722;6.440;2023-04-03T03:13:33;0.70;99.90
52675;DHT22;38569;52.722;6.440;2023-04-03T03:15:59;0.70;99.90
52675;DHT22;38569;52.722;6.440;2023-04-03T03:18:24;0.70;99.90
52675;DHT22;38569;52.722;6.440;2023-04-03T03:20:55;0.70;99.90
52675;DHT22;38569;52.722;6.440;2023-04-03T03:23:23;0.60;99.90
52675;DHT22;38569;52.722;6.440;2023-04-03T03:26:01;0.60;99.90
52675;DHT22;38569;52.722;6.440;2023-04-03T03:28:27;0.60;99.90
52675;DHT22;38569;52.722;6.440;2023-04-03T03:30:53;0.50;99.90
52675;DHT22;38569;52.722;6.440;2023-04-03T03:33:19;0.50;99.90
52675;DHT22;38569;52.722;6.440;2023-04-03T03:35:45;0.40;99.90
52675;DHT22;38569;52.722;6.440;2023-04-03T03:38:10;0.40;99.90
52675;DHT22;38569;52.722;6.440;2023-04-03T03:40:36;0.30;99.90
52675;DHT22;38569;52.722;6.440;2023-04-03T03:43:02;0.20;99.90
52675;DHT22;38569;52.722;6.440;2023-04-03T03:45:28;0.20;99.90
52675;DHT22;38569;52.722;6.440;2023-04-03T03:47:53;0.10;99.90
52675;DHT22;38569;52.722;6.440;2023-04-03T03:50:19;0.00;99.90
52675;DHT22;38569;52.722;6.440;2023-04-03T03:52:45;0.00;99.90
52675;DHT22;38569;52.722;6.440;2023-04-03T03:55:11;0.00;99.90
52675;DHT22;38569;52.722;6.440;2023-04-03T03:57:37;-0.10;99.90
52675;DHT22;38569;52.722;6.440;2023-04-03T04:00:03;-0.10;99.90
52675;DHT22;38569;52.722;6.440;2023-04-03T04:02:29;-0.20;99.90
52675;DHT22;38569;52.722;6.440;2023-04-03T04:04:55;-0.20;99.90
52675;DHT22;38569;52.722;6.440;2023-04-03T04:07:21;-0.20;99.90
52675;DHT22;38569;52.722;6.440;2023-04-03T04:09:47;-0.30;99.90
52675;DHT22;38569;52.722;6.440;2023-04-03T04:12:13;-0.30;99.90
52675;DHT22;38569;52.722;6.440;2023-04-03T04:14:38;-0.30;99.90
52675;DHT22;38569;52.722;6.440;2023-04-03T04:17:05;-0.40;99.90
52675;DHT22;38569;52.722;6.440;2023-04-03T04:19:31;-0.40;99.90
52675;DHT22;38569;52.722;6.440;2023-04-03T04:21:56;-0.40;99.90
52675;DHT22;38569;52.722;6.440;2023-04-03T04:24:22;-0.40;99.90
52675;DHT22;38569;52.722;6.440;2023-04-03T04:26:48;-0.40;99.90
52675;DHT22;38569;52.722;6.440;2023-04-03T04:29:14;-0.50;99.90
52675;DHT22;38569;52.722;6.440;2023-04-03T04:31:40;-0.50;99.90
52675;DHT22;38569;52.722;6.440;2023-04-03T04:34:05;-0.40;99.90
52675;DHT22;38569;52.722;6.440;2023-04-03T04:36:31;-0.50;99.90
52675;DHT22;38569;52.722;6.440;2023-04-03T04:38:57;-0.50;99.90
52675;DHT22;38569;52.722;6.440;2023-04-03T04:41:24;-0.50;99.90
52675;DHT22;38569;52.722;6.440;2023-04-03T04:43:50;-0.60;99.90
52675;DHT22;38569;52.722;6.440;2023-04-03T04:46:16;-0.60;99.90
52675;DHT22;38569;52.722;6.440;2023-04-03T04:48:42;-0.60;99.90
52675;DHT22;38569;52.722;6.440;2023-04-03T04:51:08;-0.60;99.90
52675;DHT22;38569;52.722;6.440;2023-04-03T04:53:33;-0.60;99.90
52675;DHT22;38569;52.722;6.440;2023-04-03T04:55:59;-0.60;99.90
52675;DHT22;38569;52.722;6.440;2023-04-03T04:58:25;-0.70;99.90
52675;DHT22;38569;52.722;6.440;2023-04-03T05:00:59;-0.70;99.90
52675;DHT22;38569;52.722;6.440;2023-04-03T05:03:25;-0.70;99.90
52675;DHT22;38569;52.722;6.440;2023-04-03T05:05:50;-0.60;99.90
52675;DHT22;38569;52.722;6.440;2023-04-03T05:08:16;-0.60;99.90
52675;DHT22;38569;52.722;6.440;2023-04-03T05:10:42;-0.60;99.90
52675;DHT22;38569;52.722;6.440;2023-04-03T05:13:08;-0.60;99.90
52675;DHT22;38569;52.722;6.440;2023-04-03T05:15:33;-0.60;99.90
52675;DHT22;38569;52.722;6.440;2023-04-03T05:17:59;-0.60;99.90
52675;DHT22;38569;52.722;6.440;2023-04-03T05:20:25;-0.70;99.90
52675;DHT22;38569;52.722;6.440;2023-04-03T05:22:50;-0.60;99.90
52675;DHT22;38569;52.722;6.440;2023-04-03T05:25:16;-0.60;99.90
52675;DHT22;38569;52.722;6.440;2023-04-03T05:27:42;-0.60;99.90
52675;DHT22;38569;52.722;6.440;2023-04-03T05:30:08;-0.60;99.90
52675;DHT22;38569;52.722;6.440;2023-04-03T05:32:34;-0.50;99.90
52675;DHT22;38569;52.722;6.440;2023-04-03T05:35:00;-0.50;99.90
52675;DHT22;38569;52.722;6.440;2023-04-03T05:37:25;-0.50;99.90
52675;DHT22;38569;52.722;6.440;2023-04-03T05:39:51;-0.40;99.90
52675;DHT22;38569;52.722;6.440;2023-04-03T05:42:17;-0.40;99.90
52675;DHT22;38569;52.722;6.440;2023-04-03T05:44:43;-0.30;99.90
52675;DHT22;38569;52.722;6.440;2023-04-03T05:47:09;-0.30;99.90
52675;DHT22;38569;52.722;6.440;2023-04-03T05:49:35;-0.20;99.90
52675;DHT22;38569;52.722;6.440;2023-04-03T05:52:01;-0.20;99.90
52675;DHT22;38569;52.722;6.440;2023-04-03T05:54:29;-0.10;99.90
52675;DHT22;38569;52.722;6.440;2023-04-03T05:56:55;0.00;99.90
52675;DHT22;38569;52.722;6.440;2023-04-03T05:59:21;0.00;99.90
52675;DHT22;38569;52.722;6.440;2023-04-03T06:01:48;0.10;99.90
52675;DHT22;38569;52.722;6.440;2023-04-03T06:04:14;0.20;99.90
52675;DHT22;38569;52.722;6.440;2023-04-03T06:06:56;0.30;99.90
52675;DHT22;38569;52.722;6.440;2023-04-03T06:09:25;0.40;99.90
52675;DHT22;38569;52.722;6.440;2023-04-03T06:11:52;0.50;99.90
52675;DHT22;38569;52.722;6.440;2023-04-03T06:14:18;0.60;99.90
52675;DHT22;38569;52.722;6.440;2023-04-03T06:16:44;0.60;99.90
52675;DHT22;38569;52.722;6.440;2023-04-03T06:19:11;0.70;99.90
52675;DHT22;38569;52.722;6.440;2023-04-03T06:21:37;0.80;99.90
52675;DHT22;38569;52.722;6.440;2023-04-03T06:24:04;0.90;99.90
52675;DHT22;38569;52.722;6.440;2023-04-03T06:26:30;1.00;99.90
52675;DHT22;38569;52.722;6.440;2023-04-03T06:28:56;1.00;99.90
52675;DHT22;38569;52.722;6.440;2023-04-03T06:31:22;1.10;99.90
52675;DHT22;38569;52.722;6.440;2023-04-03T06:33:47;1.10;99.90
52675;DHT22;38569;52.722;6.440;2023-04-03T06:36:13;1.20;99.90
52675;DHT22;38569;52.722;6.440;2023-04-03T06:38:39;1.30;99.90
52675;DHT22;38569;52.722;6.440;2023-04-03T06:41:05;1.30;99.90
52675;DHT22;38569;52.722;6.440;2023-04-03T06:43:30;1.40;99.90
52675;DHT22;38569;52.722;6.440;2023-04-03T06:45:57;1.40;99.90
52675;DHT22;38569;52.722;6.440;2023-04-03T06:48:22;1.50;99.90
52675;DHT22;38569;52.722;6.440;2023-04-03T06:50:48;1.60;99.90
52675;DHT22;38569;52.722;6.440;2023-04-03T06:53:14;1.60;99.90
52675;DHT22;38569;52.722;6.440;2023-04-03T06:55:40;1.70;99.90
52675;DHT22;38569;52.722;6.440;2023-04-03T06:58:06;1.80;99.90
52675;DHT22;38569;52.722;6.440;2023-04-03T07:00:32;1.90;99.90
52675;DHT22;38569;52.722;6.440;2023-04-03T07:02:59;2.10;99.90
52675;DHT22;38569;52.722;6.440;2023-04-03T07:05:25;2.10;99.90
52675;DHT22;38569;52.722;6.440;2023-04-03T07:07:51;2.20;99.90
52675;DHT22;38569;52.722;6.440;2023-04-03T07:10:18;2.20;99.90
52675;DHT22;38569;52.722;6.440;2023-04-03T07:12:44;2.30;99.90
52675;DHT22;38569;52.722;6.440;2023-04-03T07:15:10;2.40;99.90
52675;DHT22;38569;52.722;6.440;2023-04-03T07:17:37;2.40;99.90
52675;DHT22;38569;52.722;6.440;2023-04-03T07:20:03;2.50;99.90
52675;DHT22;38569;52.722;6.440;2023-04-03T07:22:29;2.60;99.90
52675;DHT22;38569;52.722;6.440;2023-04-03T07:24:55;2.70;99.90
52675;DHT22;38569;52.722;6.440;2023-04-03T07:27:21;2.60;99.90
52675;DHT22;38569;52.722;6.440;2023-04-03T07:29:47;2.70;99.90
52675;DHT22;38569;52.722;6.440;2023-04-03T07:32:16;2.80;99.90
52675;DHT22;38569;52.722;6.440;2023-04-03T07:34:43;2.80;99.90
52675;DHT22;38569;52.722;6.440;2023-04-03T07:37:09;2.90;99.90
52675;DHT22;38569;52.722;6.440;2023-04-03T07:39:35;2.90;99.90
52675;DHT22;38569;52.722;6.440;2023-04-03T07:42:01;3.00;99.90
52675;DHT22;38569;52.722;6.440;2023-04-03T07:44:27;3.10;99.90
52675;DHT22;38569;52.722;6.440;2023-04-03T07:46:54;3.20;99.90
52675;DHT22;38569;52.722;6.440;2023-04-03T07:49:23;3.30;99.90
52675;DHT22;38569;52.722;6.440;2023-04-03T07:51:50;3.40;99.90
52675;DHT22;38569;52.722;6.440;2023-04-03T07:54:15;3.40;99.90
52675;DHT22;38569;52.722;6.440;2023-04-03T07:56:42;3.50;99.90
52675;DHT22;38569;52.722;6.440;2023-04-03T07:59:09;3.50;99.90
52675;DHT22;38569;52.722;6.440;2023-04-03T08:01:34;3.50;99.90
52675;DHT22;38569;52.722;6.440;2023-04-03T08:04:00;3.60;99.90
52675;DHT22;38569;52.722;6.440;2023-04-03T08:06:26;3.60;99.90
52675;DHT22;38569;52.722;6.440;2023-04-03T08:08:52;3.70;99.90
52675;DHT22;38569;52.722;6.440;2023-04-03T08:11:18;3.80;99.90
52675;DHT22;38569;52.722;6.440;2023-04-03T08:13:44;3.80;99.90
52675;DHT22;38569;52.722;6.440;2023-04-03T08:16:17;3.80;99.90
52675;DHT22;38569;52.722;6.440;2023-04-03T08:18:43;4.00;99.90
52675;DHT22;38569;52.722;6.440;2023-04-03T08:21:11;4.10;99.90
52675;DHT22;38569;52.722;6.440;2023-04-03T08:23:38;4.20;99.90
52675;DHT22;38569;52.722;6.440;2023-04-03T08:26:12;4.30;99.90
52675;DHT22;38569;52.722;6.440;2023-04-03T08:28:38;4.40;99.90
52675;DHT22;38569;52.722;6.440;2023-04-03T08:31:06;4.50;99.90
52675;DHT22;38569;52.722;6.440;2023-04-03T08:33:35;4.40;99.90
52675;DHT22;38569;52.722;6.440;2023-04-03T08:36:03;4.50;99.90
52675;DHT22;38569;52.722;6.440;2023-04-03T08:38:29;4.60;99.90
52675;DHT22;38569;52.722;6.440;2023-04-03T08:41:11;4.60;99.90
52675;DHT22;38569;52.722;6.440;2023-04-03T08:49:10;4.80;98.20
52675;DHT22;38569;52.722;6.440;2023-04-03T08:51:42;5.00;99.90
52675;DHT22;38569;52.722;6.440;2023-04-03T08:54:30;5.10;99.60
52675;DHT22;38569;52.722;6.440;2023-04-03T08:57:01;5.10;95.90
52675;DHT22;38569;52.722;6.440;2023-04-03T08:59:35;5.10;94.90
52675;DHT22;38569;52.722;6.440;2023-04-03T09:02:13;5.10;95.20
52675;DHT22;38569;52.722;6.440;2023-04-03T09:04:41;5.20;95.10
52675;DHT22;38569;52.722;6.440;2023-04-03T09:07:18;5.40;96.50
52675;DHT22;38569;52.722;6.440;2023-04-03T09:09:46;5.60;95.40
52675;DHT22;38569;52.722;6.440;2023-04-03T09:12:27;5.60;93.80
52675;DHT22;38569;52.722;6.440;2023-04-03T09:15:06;5.60;90.00
52675;DHT22;38569;52.722;6.440;2023-04-03T09:22:32;5.70;85.60
52675;DHT22;38569;52.722;6.440;2023-04-03T09:25:08;5.70;85.30
52675;DHT22;38569;52.722;6.440;2023-04-03T09:27:35;5.90;82.80
52675;DHT22;38569;52.722;6.440;2023-04-03T09:30:02;5.90;83.10
52675;DHT22;38569;52.722;6.440;2023-04-03T09:32:33;6.00;80.00
52675;DHT22;38569;52.722;6.440;2023-04-03T09:35:03;6.00;71.70
52675;DHT22;38569;52.722;6.440;2023-04-03T09:37:44;6.20;69.20
52675;DHT22;38569;52.722;6.440;2023-04-03T09:42:53;6.30;70.80
52675;DHT22;38569;52.722;6.440;2023-04-03T09:45:41;6.50;67.70
52675;DHT22;38569;52.722;6.440;2023-04-03T09:53:39;6.40;62.50
52675;DHT22;38569;52.722;6.440;2023-04-03T09:59:07;6.60;65.40
52675;DHT22;38569;52.722;6.440;2023-04-03T10:01:36;6.90;65.90
52675;DHT22;38569;52.722;6.440;2023-04-03T10:04:16;8.10;66.60
52675;DHT22;38569;52.722;6.440;2023-04-03T10:06:43;9.60;60.90
52675;DHT22;38569;52.722;6.440;2023-04-03T10:09:51;10.40;57.60
52675;DHT22;38569;52.722;6.440;2023-04-03T10:12:12;10.60;53.10
52675;DHT22;38569;52.722;6.440;2023-04-03T10:14:57;10.70;51.70
52675;DHT22;38569;52.722;6.440;2023-04-03T10:20:35;11.40;50.60
52675;DHT22;38569;52.722;6.440;2023-04-03T10:23:17;11.30;49.70
52675;DHT22;38569;52.722;6.440;2023-04-03T10:31:27;12.90;48.00
52675;DHT22;38569;52.722;6.440;2023-04-03T10:34:21;13.40;47.70
52675;DHT22;38569;52.722;6.440;2023-04-03T10:48:07;16.00;41.70
52675;DHT22;38569;52.722;6.440;2023-04-03T10:51:02;16.50;41.90
52675;DHT22;38569;52.722;6.440;2023-04-03T10:53:38;15.80;41.80
52675;DHT22;38569;52.722;6.440;2023-04-03T10:56:15;15.90;41.50
52675;DHT22;38569;52.722;6.440;2023-04-03T10:58:47;15.50;41.60
52675;DHT22;38569;52.722;6.440;2023-04-03T11:01:19;15.30;42.20
52675;DHT22;38569;52.722;6.440;2023-04-03T11:03:49;15.60;43.00
52675;DHT22;38569;52.722;6.440;2023-04-03T11:06:18;15.70;43.10
52675;DHT22;38569;52.722;6.440;2023-04-03T11:08:57;15.50;42.00
52675;DHT22;38569;52.722;6.440;2023-04-03T11:11:36;15.80;43.10
52675;DHT22;38569;52.722;6.440;2023-04-03T11:14:27;15.40;42.20
52675;DHT22;38569;52.722;6.440;2023-04-03T11:22:50;14.80;44.10
52675;DHT22;38569;52.722;6.440;2023-04-03T11:25:21;14.90;43.60
52675;DHT22;38569;52.722;6.440;2023-04-03T11:27:58;14.90;43.60
52675;DHT22;38569;52.722;6.440;2023-04-03T11:30:38;14.30;42.00
52675;DHT22;38569;52.722;6.440;2023-04-03T11:35:51;12.90;43.10
52675;DHT22;38569;52.722;6.440;2023-04-03T11:38:25;12.40;45.30
52675;DHT22;38569;52.722;6.440;2023-04-03T11:40:53;13.10;44.00
52675;DHT22;38569;52.722;6.440;2023-04-03T11:43:22;13.00;43.60
52675;DHT22;38569;52.722;6.440;2023-04-03T11:45:55;13.70;44.50
52675;DHT22;38569;52.722;6.440;2023-04-03T11:50:55;14.40;43.50
52675;DHT22;38569;52.722;6.440;2023-04-03T11:55:55;14.50;43.70
52675;DHT22;38569;52.722;6.440;2023-04-03T11:58:25;14.20;43.20
52675;DHT22;38569;52.722;6.440;2023-04-03T12:01:07;13.90;43.60
52675;DHT22;38569;52.722;6.440;2023-04-03T12:03:56;13.80;43.50
52675;DHT22;38569;52.722;6.440;2023-04-03T12:08:57;14.20;43.30
52675;DHT22;38569;52.722;6.440;2023-04-03T12:11:30;14.70;44.60
52675;DHT22;38569;52.722;6.440;2023-04-03T12:22:04;12.60;43.90
52675;DHT22;38569;52.722;6.440;2023-04-03T12:24:40;12.60;44.70
52675;DHT22;38569;52.722;6.440;2023-04-03T12:32:51;13.00;46.10
52675;DHT22;38569;52.722;6.440;2023-04-03T12:48:26;12.50;45.90
52675;DHT22;38569;52.722;6.440;2023-04-03T12:50:53;12.50;46.30
52675;DHT22;38569;52.722;6.440;2023-04-03T12:53:22;12.40;46.50
52675;DHT22;38569;52.722;6.440;2023-04-03T12:55:57;12.50;45.60
52675;DHT22;38569;52.722;6.440;2023-04-03T12:58:25;12.00;46.30
52675;DHT22;38569;52.722;6.440;2023-04-03T13:01:04;11.80;45.90
52675;DHT22;38569;52.722;6.440;2023-04-03T13:03:34;12.10;46.20
52675;DHT22;38569;52.722;6.440;2023-04-03T13:06:03;12.50;47.20
52675;DHT22;38569;52.722;6.440;2023-04-03T13:08:30;12.30;46.90
52675;DHT22;38569;52.722;6.440;2023-04-03T13:11:03;12.00;46.80
52675;DHT22;38569;52.722;6.440;2023-04-03T13:13:31;12.30;47.40
52675;DHT22;38569;52.722;6.440;2023-04-03T13:15:57;12.70;47.50
52675;DHT22;38569;52.722;6.440;2023-04-03T13:18:31;13.00;46.60
52675;DHT22;38569;52.722;6.440;2023-04-03T13:20:59;13.30;45.20
52675;DHT22;38569;52.722;6.440;2023-04-03T13:23:26;12.60;44.40
52675;DHT22;38569;52.722;6.440;2023-04-03T13:25:52;12.30;45.80
52675;DHT22;38569;52.722;6.440;2023-04-03T13:28:22;11.80;46.80
52675;DHT22;38569;52.722;6.440;2023-04-03T13:31:06;11.70;47.40
52675;DHT22;38569;52.722;6.440;2023-04-03T13:33:34;11.40;46.10
52675;DHT22;38569;52.722;6.440;2023-04-03T13:36:16;11.60;47.30
52675;DHT22;38569;52.722;6.440;2023-04-03T13:38:42;11.60;46.20
52675;DHT22;38569;52.722;6.440;2023-04-03T13:41:32;11.70;47.40
52675;DHT22;38569;52.722;6.440;2023-04-03T13:46:51;12.10;46.80
52675;DHT22;38569;52.722;6.440;2023-04-03T13:49:22;12.30;48.00
52675;DHT22;38569;52.722;6.440;2023-04-03T13:51:52;12.80;47.60
52675;DHT22;38569;52.722;6.440;2023-04-03T13:54:22;13.00;47.10
52675;DHT22;38569;52.722;6.440;2023-04-03T13:56:54;13.00;47.10
52675;DHT22;38569;52.722;6.440;2023-04-03T13:59:35;13.20;47.10
52675;DHT22;38569;52.722;6.440;2023-04-03T14:04:51;12.70;46.10
52675;DHT22;38569;52.722;6.440;2023-04-03T14:07:19;12.50;46.30
52675;DHT22;38569;52.722;6.440;2023-04-03T14:09:47;12.40;47.20
52675;DHT22;38569;52.722;6.440;2023-04-03T14:12:21;12.40;46.60
52675;DHT22;38569;52.722;6.440;2023-04-03T14:14:49;12.30;46.70
52675;DHT22;38569;52.722;6.440;2023-04-03T14:17:21;12.20;46.40
52675;DHT22;38569;52.722;6.440;2023-04-03T14:19:49;12.20;48.80
52675;DHT22;38569;52.722;6.440;2023-04-03T14:24:41;12.10;46.70
52675;DHT22;38569;52.722;6.440;2023-04-03T14:27:18;11.80;46.80
52675;DHT22;38569;52.722;6.440;2023-04-03T14:29:45;11.70;47.80
52675;DHT22;38569;52.722;6.440;2023-04-03T14:32:13;11.90;48.20
52675;DHT22;38569;52.722;6.440;2023-04-03T14:34:40;11.60;46.60
52675;DHT22;38569;52.722;6.440;2023-04-03T14:37:13;11.80;47.60
52675;DHT22;38569;52.722;6.440;2023-04-03T14:39:40;12.20;47.70
52675;DHT22;38569;52.722;6.440;2023-04-03T14:42:06;12.60;47.70
52675;DHT22;38569;52.722;6.440;2023-04-03T14:44:35;12.30;46.90
52675;DHT22;38569;52.722;6.440;2023-04-03T14:47:01;12.30;47.70
52675;DHT22;38569;52.722;6.440;2023-04-03T14:49:28;12.20;47.70
52675;DHT22;38569;52.722;6.440;2023-04-03T14:51:58;12.00;47.60
52675;DHT22;38569;52.722;6.440;2023-04-03T14:54:24;11.80;47.80
52675;DHT22;38569;52.722;6.440;2023-04-03T14:57:11;11.60;48.20
52675;DHT22;38569;52.722;6.440;2023-04-03T14:59:38;11.70;48.40
52675;DHT22;38569;52.722;6.440;2023-04-03T15:02:33;11.60;48.30
52675;DHT22;38569;52.722;6.440;2023-04-03T15:04:58;11.40;47.60
52675;DHT22;38569;52.722;6.440;2023-04-03T15:07:27;11.60;48.40
52675;DHT22;38569;52.722;6.440;2023-04-03T15:09:54;11.80;48.40
52675;DHT22;38569;52.722;6.440;2023-04-03T15:12:24;12.20;48.30
52675;DHT22;38569;52.722;6.440;2023-04-03T15:14:50;12.00;47.50
52675;DHT22;38569;52.722;6.440;2023-04-03T15:17:18;11.90;47.70
52675;DHT22;38569;52.722;6.440;2023-04-03T15:19:45;11.70;48.10
52675;DHT22;38569;52.722;6.440;2023-04-03T15:22:18;11.90;48.00
52675;DHT22;38569;52.722;6.440;2023-04-03T15:24:44;11.70;47.90
52675;DHT22;38569;52.722;6.440;2023-04-03T15:27:11;11.40;48.00
52675;DHT22;38569;52.722;6.440;2023-04-03T15:29:38;11.30;49.10
52675;DHT22;38569;52.722;6.440;2023-04-03T15:32:05;11.30;48.30
52675;DHT22;38569;52.722;6.440;2023-04-03T15:34:31;11.10;49.00
52675;DHT22;38569;52.722;6.440;2023-04-03T15:36:57;10.90;49.10
52675;DHT22;38569;52.722;6.440;2023-04-03T15:39:24;10.80;48.70
52675;DHT22;38569;52.722;6.440;2023-04-03T15:41:51;10.70;49.10
52675;DHT22;38569;52.722;6.440;2023-04-03T15:44:18;10.60;49.90
52675;DHT22;38569;52.722;6.440;2023-04-03T15:46:45;10.60;49.10
52675;DHT22;38569;52.722;6.440;2023-04-03T15:49:12;10.60;50.10
52675;DHT22;38569;52.722;6.440;2023-04-03T15:51:38;10.60;50.20
52675;DHT22;38569;52.722;6.440;2023-04-03T15:54:04;10.70;50.20
52675;DHT22;38569;52.722;6.440;2023-04-03T15:56:30;10.60;49.50
52675;DHT22;38569;52.722;6.440;2023-04-03T15:58:55;10.50;49.60
52675;DHT22;38569;52.722;6.440;2023-04-03T16:01:21;10.40;49.10
52675;DHT22;38569;52.722;6.440;2023-04-03T16:03:47;10.40;50.00
52675;DHT22;38569;52.722;6.440;2023-04-03T16:06:14;10.30;48.40
52675;DHT22;38569;52.722;6.440;2023-04-03T16:08:40;10.20;48.90
52675;DHT22;38569;52.722;6.440;2023-04-03T16:11:06;10.00;49.10
52675;DHT22;38569;52.722;6.440;2023-04-03T16:13:32;10.00;50.50
52675;DHT22;38569;52.722;6.440;2023-04-03T16:16:00;10.10;50.00
52675;DHT22;38569;52.722;6.440;2023-04-03T16:18:27;10.00;49.40
52675;DHT22;38569;52.722;6.440;2023-04-03T16:20:53;10.00;49.90
52675;DHT22;38569;52.722;6.440;2023-04-03T16:23:19;10.00;50.00
52675;DHT22;38569;52.722;6.440;2023-04-03T16:25:45;10.00;50.30
52675;DHT22;38569;52.722;6.440;2023-04-03T16:28:17;10.00;50.30
52675;DHT22;38569;52.722;6.440;2023-04-03T16:30:44;10.00;49.90
52675;DHT22;38569;52.722;6.440;2023-04-03T16:33:12;9.80;50.20
52675;DHT22;38569;52.722;6.440;2023-04-03T16:35:38;9.90;51.20
52675;DHT22;38569;52.722;6.440;2023-04-03T16:38:04;9.90;50.60
52675;DHT22;38569;52.722;6.440;2023-04-03T16:40:30;9.90;51.10
52675;DHT22;38569;52.722;6.440;2023-04-03T16:42:55;9.90;50.60
52675;DHT22;38569;52.722;6.440;2023-04-03T16:45:21;9.90;50.90
52675;DHT22;38569;52.722;6.440;2023-04-03T16:47:47;9.90;50.90
52675;DHT22;38569;52.722;6.440;2023-04-03T16:50:13;9.70;50.90
52675;DHT22;38569;52.722;6.440;2023-04-03T16:52:38;9.50;51.00
52675;DHT22;38569;52.722;6.440;2023-04-03T16:55:05;9.40;51.20
52675;DHT22;38569;52.722;6.440;2023-04-03T16:57:31;9.30;51.10
52675;DHT22;38569;52.722;6.440;2023-04-03T16:59:56;9.20;51.40
52675;DHT22;38569;52.722;6.440;2023-04-03T17:02:22;9.20;52.20
52675;DHT22;38569;52.722;6.440;2023-04-03T17:04:52;9.10;52.40
52675;DHT22;38569;52.722;6.440;2023-04-03T17:07:19;9.10;53.10
52675;DHT22;38569;52.722;6.440;2023-04-03T17:09:45;9.00;53.20
52675;DHT22;38569;52.722;6.440;2023-04-03T17:12:11;9.00;53.60
52675;DHT22;38569;52.722;6.440;2023-04-03T17:14:37;9.00;53.40
52675;DHT22;38569;52.722;6.440;2023-04-03T17:17:03;9.00;53.70
52675;DHT22;38569;52.722;6.440;2023-04-03T17:19:29;8.90;54.10
52675;DHT22;38569;52.722;6.440;2023-04-03T17:21:56;8.90;53.40
52675;DHT22;38569;52.722;6.440;2023-04-03T17:24:22;8.90;53.90
52675;DHT22;38569;52.722;6.440;2023-04-03T17:26:48;8.80;53.80
52675;DHT22;38569;52.722;6.440;2023-04-03T17:29:14;8.80;53.70